sensor_id;sensor_type;location;lat;lon;timestamp;temperature;humidity
15483;DHT22;7843;50.330;7.312;2024-03-23T00:55:34;8.80;99.90
15483;DHT22;7843;50.330;7.312;2024-03-23T00:58:00;8.80;99.90
15483;DHT22;7843;50.330;7.312;2024-03-23T01:00:25;8.80;99.90
15483;DHT22;7843;50.330;7.312;2024-03-23T01:02:51;8.80;99.90
15483;DHT22;7843;50.330;7.312;2024-03-23T01:05:17;8.80;99.90
15483;DHT22;7843;50.330;7.312;2024-03-23T01:07:43;8.80;99.90
15483;DHT22;7843;50.330;7.312;2024-03-23T01:10:09;8.70;99.90
15483;DHT22;7843;50.330;7.312;2024-03-23T01:12:34;8.70;99.90
15483;DHT22;7843;50.330;7.312;2024-03-23T01:15:00;8.80;99.90
15483;DHT22;7843;50.330;7.312;2024-03-23T01:17:26;8.80;99.90
15483;DHT22;7843;50.330;7.312;2024-03-23T01:19:52;8.80;99.90
15483;DHT22;7843;50.330;7.312;2024-03-23T01:22:18;8.80;99.90
15483;DHT22;7843;50.330;7.312;2024-03-23T01:24:43;8.60;99.90
15483;DHT22;7843;50.330;7.312;2024-03-23T01:27:09;8.30;99.90
15483;DHT22;7843;50.330;7.312;2024-03-23T01:29:35;8.10;99.90
15483;DHT22;7843;50.330;7.312;2024-03-23T01:32:01;8.00;99.90
15483;DHT22;7843;50.330;7.312;2024-03-23T01:34:27;8.00;99.90
15483;DHT22;7843;50.330;7.312;2024-03-23T01:36:53;7.90;99.90
15483;DHT22;7843;50.330;7.312;2024-03-23T01:39:19;7.80;99.90
15483;DHT22;7843;50.330;7.312;2024-03-23T01:41:45;7.80;99.90
15483;DHT22;7843;50.330;7.312;2024-03-23T01:44:11;7.70;99.90
15483;DHT22;7843;50.330;7.312;2024-03-23T01:46:37;7.70;99.90
15483;DHT22;7843;50.330;7.312;2024-03-23T01:49:06;7.60;99.90
15483;DHT22;7843;50.330;7.312;2024-03-23T01:54:01;7.60;99.90
15483;DHT22;7843;50.330;7.312;2024-03-23T01:56:33;7.50;99.90
15483;DHT22;7843;50.330;7.312;2024-03-23T01:59:04;7.50;99.90
15483;DHT22;7843;50.330;7.312;2024-03-23T02:01:40;7.50;99.90
15483;DHT22;7843;50.330;7.312;2024-03-23T02:04:06;7.40;99.90
15483;DHT22;7843;50.330;7.312;2024-03-23T02:06:33;7.40;99.90
15483;DHT22;7843;50.330;7.312;2024-03-23T02:08:59;7.40;99.90
15483;DHT22;7843;50.330;7.312;2024-03-23T02:11:26;7.30;99.90
15483;DHT22;7843;50.330;7.312;2024-03-23T02:13:51;7.30;99.90
15483;DHT22;7843;50.330;7.312;2024-03-23T02:16:17;7.30;99.90
15483;DHT22;7843;50.330;7.312;2024-03-23T02:18:43;7.30;99.90
15483;DHT22;7843;50.330;7.312;2024-03-23T02:21:09;7.20;99.90
15483;DHT22;7843;50.330;7.312;2024-03-23T02:23:35;7.20;99.90
15483;DHT22;7843;50.330;7.312;2024-03-23T02:26:00;7.20;99.90
15483;DHT22;7843;50.330;7.312;2024-03-23T02:28:26;7.20;99.90
15483;DHT22;7843;50.330;7.312;2024-03-23T02:30:52;7.10;99.90
15483;DHT22;7843;50.330;7.312;2024-03-23T02:33:18;7.10;99.90
15483;DHT22;7843;50.330;7.312;2024-03-23T02:35:44;7.10;99.90
15483;DHT22;7843;50.330;7.312;2024-03-23T02:38:10;7.10;99.90
15483;DHT22;7843;50.330;7.312;2024-03-23T02:40:36;7.00;99.90
15483;DHT22;7843;50.330;7.312;2024-03-23T02:43:03;7.00;99.90
15483;DHT22;7843;50.330;7.312;2024-03-23T02:45:29;7.00;99.90
15483;DHT22;7843;50.330;7.312;2024-03-23T02:47:55;7.00;99.90
15483;DHT22;7843;50.330;7.312;2024-03-23T02:50:22;6.90;99.90
15483;DHT22;7843;50.330;7.312;2024-03-23T02:52:48;6.90;99.90
15483;DHT22;7843;50.330;7.312;2024-03-23T02:55:14;6.80;99.90
15483;DHT22;7843;50.330;7.312;2024-03-23T02:57:40;6.80;99.90
15483;DHT22;7843;50.330;7.312;2024-03-23T03:00:07;6.80;99.90
15483;DHT22;7843;50.330;7.312;2024-03-23T03:02:33;6.80;99.90
15483;DHT22;7843;50.330;7.312;2024-03-23T03:04:59;6.80;99.90
15483;DHT22;7843;50.330;7.312;2024-03-23T03:07:25;6.80;99.90
15483;DHT22;7843;50.330;7.312;2024-03-23T03:09:51;6.80;99.90
15483;DHT22;7843;50.330;7.312;2024-03-23T03:12:17;6.80;99.90
15483;DHT22;7843;50.330;7.312;2024-03-23T03:14:43;6.80;99.90
15483;DHT22;7843;50.330;7.312;2024-03-23T03:17:08;6.70;99.90
15483;DHT22;7843;50.330;7.312;2024-03-23T03:19:34;6.80;99.90
15483;DHT22;7843;50.330;7.312;2024-03-23T03:22:00;6.70;99.90
15483;DHT22;7843;50.330;7.312;2024-03-23T03:24:26;6.70;99.90
15483;DHT22;7843;50.330;7.312;2024-03-23T03:26:52;6.70;99.90
15483;DHT22;7843;50.330;7.312;2024-03-23T03:29:17;6.70;99.90
15483;DHT22;7843;50.330;7.312;2024-03-23T03:31:43;6.70;99.90
15483;DHT22;7843;50.330;7.312;2024-03-23T03:34:09;6.70;99.90
15483;DHT22;7843;50.330;7.312;2024-03-23T03:36:35;6.70;99.90
15483;DHT22;7843;50.330;7.312;2024-03-23T03:39:01;6.60;99.90
15483;DHT22;7843;50.330;7.312;2024-03-23T03:41:29;6.70;99.90
15483;DHT22;7843;50.330;7.312;2024-03-23T03:43:54;6.70;99.90
15483;DHT22;7843;50.330;7.312;2024-03-23T03:46:21;6.70;99.90
15483;DHT22;7843;50.330;7.312;2024-03-23T03:48:46;6.70;99.90
15483;DHT22;7843;50.330;7.312;2024-03-23T03:51:14;6.60;99.90
15483;DHT22;7843;50.330;7.312;2024-03-23T03:53:40;6.60;99.90
15483;DHT22;7843;50.330;7.312;2024-03-23T03:56:05;6.60;99.90
15483;DHT22;7843;50.330;7.312;2024-03-23T03:58:32;6.40;99.90
15483;DHT22;7843;50.330;7.312;2024-03-23T04:00:58;6.30;99.90
15483;DHT22;7843;50.330;7.312;2024-03-23T04:03:24;6.20;99.90
15483;DHT22;7843;50.330;7.312;2024-03-23T04:05:54;6.00;99.90
15483;DHT22;7843;50.330;7.312;2024-03-23T04:08:20;6.00;99.90
15483;DHT22;7843;50.330;7.312;2024-03-23T04:10:47;5.90;99.90
15483;DHT22;7843;50.330;7.312;2024-03-23T04:13:13;5.90;99.90
15483;DHT22;7843;50.330;7.312;2024-03-23T04:15:39;5.80;99.90
15483;DHT22;7843;50.330;7.312;2024-03-23T04:18:05;5.70;99.90
15483;DHT22;7843;50.330;7.312;2024-03-23T04:20:31;5.60;99.90
15483;DHT22;7843;50.330;7.312;2024-03-23T04:22:58;5.60;99.90
15483;DHT22;7843;50.330;7.312;2024-03-23T04:25:24;5.50;99.90
15483;DHT22;7843;50.330;7.312;2024-03-23T04:27:50;5.50;99.90
15483;DHT22;7843;50.330;7.312;2024-03-23T04:30:16;5.50;99.90
15483;DHT22;7843;50.330;7.312;2024-03-23T04:32:43;5.40;99.90
15483;DHT22;7843;50.330;7.312;2024-03-23T04:35:09;5.40;99.90
15483;DHT22;7843;50.330;7.312;2024-03-23T04:37:36;5.30;99.90
15483;DHT22;7843;50.330;7.312;2024-03-23T04:40:03;5.20;99.90
15483;DHT22;7843;50.330;7.312;2024-03-23T04:42:30;5.10;99.90
15483;DHT22;7843;50.330;7.312;2024-03-23T04:44:56;5.10;99.90
15483;DHT22;7843;50.330;7.312;2024-03-23T04:47:22;5.00;99.90
15483;DHT22;7843;50.330;7.312;2024-03-23T04:49:48;5.00;99.90
15483;DHT22;7843;50.330;7.312;2024-03-23T04:52:14;5.00;99.90
15483;DHT22;7843;50.330;7.312;2024-03-23T04:54:40;5.00;99.90
15483;DHT22;7843;50.330;7.312;2024-03-23T04:57:06;4.90;99.90
15483;DHT22;7843;50.330;7.312;2024-03-23T04:59:32;4.80;99.90
15483;DHT22;7843;50.330;7.312;2024-03-23T05:01:59;4.80;99.90
15483;DHT22;7843;50.330;7.312;2024-03-23T05:04:25;4.80;99.90
15483;DHT22;7843;50.330;7.312;2024-03-23T05:06:51;4.80;99.90
15483;DHT22;7843;50.330;7.312;2024-03-23T05:09:17;4.80;99.90
15483;DHT22;7843;50.330;7.312;2024-03-23T05:11:43;4.90;99.90
15483;DHT22;7843;50.330;7.312;2024-03-23T05:14:08;4.90;99.90
15483;DHT22;7843;50.330;7.312;2024-03-23T05:16:34;5.00;99.90
15483;DHT22;7843;50.330;7.312;2024-03-23T05:19:00;4.90;99.90
15483;DHT22;7843;50.330;7.312;2024-03-23T05:21:27;4.90;99.90
15483;DHT22;7843;50.330;7.312;2024-03-23T05:23:54;4.90;99.90
15483;DHT22;7843;50.330;7.312;2024-03-23T05:26:20;4.90;99.90
15483;DHT22;7843;50.330;7.312;2024-03-23T05:28:46;4.90;99.90
15483;DHT22;7843;50.330;7.312;2024-03-23T05:31:11;4.90;99.90
15483;DHT22;7843;50.330;7.312;2024-03-23T05:33:37;5.00;99.90
15483;DHT22;7843;50.330;7.312;2024-03-23T05:36:06;5.00;99.90
15483;DHT22;7843;50.330;7.312;2024-03-23T05:38:36;5.00;99.90
15483;DHT22;7843;50.330;7.312;2024-03-23T05:41:02;5.10;99.90
15483;DHT22;7843;50.330;7.312;2024-03-23T05:43:28;5.10;99.90
15483;DHT22;7843;50.330;7.312;2024-03-23T05:45:55;5.10;99.90
15483;DHT22;7843;50.330;7.312;2024-03-23T05:48:22;5.20;99.90
15483;DHT22;7843;50.330;7.312;2024-03-23T05:50:48;5.10;99.90
15483;DHT22;7843;50.330;7.312;2024-03-23T05:53:18;5.20;99.90
15483;DHT22;7843;50.330;7.312;2024-03-23T05:55:46;5.20;99.90
15483;DHT22;7843;50.330;7.312;2024-03-23T05:58:15;5.20;99.90
15483;DHT22;7843;50.330;7.312;2024-03-23T06:00:41;5.20;99.90
15483;DHT22;7843;50.330;7.312;2024-03-23T06:03:08;5.30;99.90
15483;DHT22;7843;50.330;7.312;2024-03-23T06:05:34;5.30;99.90
15483;DHT22;7843;50.330;7.312;2024-03-23T06:08:00;5.30;99.90
15483;DHT22;7843;50.330;7.312;2024-03-23T06:10:26;5.30;99.90
15483;DHT22;7843;50.330;7.312;2024-03-23T06:12:51;5.30;99.90
15483;DHT22;7843;50.330;7.312;2024-03-23T06:15:21;5.40;99.90
15483;DHT22;7843;50.330;7.312;2024-03-23T06:17:48;5.40;99.90
15483;DHT22;7843;50.330;7.312;2024-03-23T06:20:14;5.40;99.90
15483;DHT22;7843;50.330;7.312;2024-03-23T06:22:40;5.40;99.90
15483;DHT22;7843;50.330;7.312;2024-03-23T06:25:06;5.50;99.90
15483;DHT22;7843;50.330;7.312;2024-03-23T06:27:32;5.40;99.90
15483;DHT22;7843;50.330;7.312;2024-03-23T06:30:02;5.40;99.90
15483;DHT22;7843;50.330;7.312;2024-03-23T06:32:28;5.50;99.90
15483;DHT22;7843;50.330;7.312;2024-03-23T06:34:57;5.50;99.90
15483;DHT22;7843;50.330;7.312;2024-03-23T06:37:22;5.50;99.90
15483;DHT22;7843;50.330;7.312;2024-03-23T06:39:48;5.50;99.90
15483;DHT22;7843;50.330;7.312;2024-03-23T06:42:14;5.50;99.90
15483;DHT22;7843;50.330;7.312;2024-03-23T06:44:40;5.50;99.90
15483;DHT22;7843;50.330;7.312;2024-03-23T06:47:06;5.60;99.90
15483;DHT22;7843;50.330;7.312;2024-03-23T06:49:32;5.70;99.90
15483;DHT22;7843;50.330;7.312;2024-03-23T06:51:57;5.90;99.90
15483;DHT22;7843;50.330;7.312;2024-03-23T06:54:24;6.10;99.90
15483;DHT22;7843;50.330;7.312;2024-03-23T06:56:50;6.10;99.90
15483;DHT22;7843;50.330;7.312;2024-03-23T06:59:16;6.20;99.90
15483;DHT22;7843;50.330;7.312;2024-03-23T07:01:41;6.20;99.90
15483;DHT22;7843;50.330;7.312;2024-03-23T07:04:07;6.10;99.90
15483;DHT22;7843;50.330;7.312;2024-03-23T07:06:33;6.00;99.90
15483;DHT22;7843;50.330;7.312;2024-03-23T07:08:59;6.00;99.90
15483;DHT22;7843;50.330;7.312;2024-03-23T07:11:25;6.10;99.90
15483;DHT22;7843;50.330;7.312;2024-03-23T07:13:52;6.10;99.90
15483;DHT22;7843;50.330;7.312;2024-03-23T07:16:20;6.10;99.90
15483;DHT22;7843;50.330;7.312;2024-03-23T07:18:46;6.20;99.90
15483;DHT22;7843;50.330;7.312;2024-03-23T07:21:12;6.20;99.90
15483;DHT22;7843;50.330;7.312;2024-03-23T07:23:38;6.20;99.90
15483;DHT22;7843;50.330;7.312;2024-03-23T07:26:07;6.20;99.90
15483;DHT22;7843;50.330;7.312;2024-03-23T07:28:34;6.20;99.90
15483;DHT22;7843;50.330;7.312;2024-03-23T07:31:03;6.10;99.90
15483;DHT22;7843;50.330;7.312;2024-03-23T07:33:29;6.10;99.90
15483;DHT22;7843;50.330;7.312;2024-03-23T07:35:54;6.20;99.90
15483;DHT22;7843;50.330;7.312;2024-03-23T07:38:20;6.30;99.90
15483;DHT22;7843;50.330;7.312;2024-03-23T07:40:46;6.40;99.90
15483;DHT22;7843;50.330;7.312;2024-03-23T07:43:12;6.50;99.90
15483;DHT22;7843;50.330;7.312;2024-03-23T07:45:38;6.50;99.90
15483;DHT22;7843;50.330;7.312;2024-03-23T07:48:04;6.60;99.90
15483;DHT22;7843;50.330;7.312;2024-03-23T07:50:30;6.60;99.90
15483;DHT22;7843;50.330;7.312;2024-03-23T07:52:56;6.70;99.90
15483;DHT22;7843;50.330;7.312;2024-03-23T07:55:21;6.80;99.90
15483;DHT22;7843;50.330;7.312;2024-03-23T07:57:47;6.80;99.90
15483;DHT22;7843;50.330;7.312;2024-03-23T08:00:13;6.90;99.90
15483;DHT22;7843;50.330;7.312;2024-03-23T08:02:39;7.00;99.90
15483;DHT22;7843;50.330;7.312;2024-03-23T08:05:05;7.00;98.60
15483;DHT22;7843;50.330;7.312;2024-03-23T08:07:31;7.00;99.20
15483;DHT22;7843;50.330;7.312;2024-03-23T08:09:57;7.10;99.80
15483;DHT22;7843;50.330;7.312;2024-03-23T08:12:25;7.10;98.90
15483;DHT22;7843;50.330;7.312;2024-03-23T08:14:50;7.10;96.60
15483;DHT22;7843;50.330;7.312;2024-03-23T08:17:16;7.20;97.60
15483;DHT22;7843;50.330;7.312;2024-03-23T08:19:42;7.20;97.50
15483;DHT22;7843;50.330;7.312;2024-03-23T08:22:08;7.20;96.70
15483;DHT22;7843;50.330;7.312;2024-03-23T08:24:34;7.30;97.20
15483;DHT22;7843;50.330;7.312;2024-03-23T08:27:00;7.30;95.70
15483;DHT22;7843;50.330;7.312;2024-03-23T08:29:26;7.40;95.40
15483;DHT22;7843;50.330;7.312;2024-03-23T08:31:52;7.40;95.20
15483;DHT22;7843;50.330;7.312;2024-03-23T08:34:17;7.60;95.90
15483;DHT22;7843;50.330;7.312;2024-03-23T08:36:43;7.80;94.30
15483;DHT22;7843;50.330;7.312;2024-03-23T08:39:09;8.10;93.70
15483;DHT22;7843;50.330;7.312;2024-03-23T08:41:35;8.20;93.40
15483;DHT22;7843;50.330;7.312;2024-03-23T08:44:01;8.30;94.30
15483;DHT22;7843;50.330;7.312;2024-03-23T08:46:26;8.10;92.60
15483;DHT22;7843;50.330;7.312;2024-03-23T08:48:53;8.00;93.20
15483;DHT22;7843;50.330;7.312;2024-03-23T08:51:19;8.10;94.00
15483;DHT22;7843;50.330;7.312;2024-03-23T08:53:45;8.10;93.50
15483;DHT22;7843;50.330;7.312;2024-03-23T08:56:11;8.10;92.70
15483;DHT22;7843;50.330;7.312;2024-03-23T08:58:38;8.20;92.50
15483;DHT22;7843;50.330;7.312;2024-03-23T09:01:11;8.30;92.50
15483;DHT22;7843;50.330;7.312;2024-03-23T09:03:39;8.50;91.30
15483;DHT22;7843;50.330;7.312;2024-03-23T09:06:09;8.70;91.00
15483;DHT22;7843;50.330;7.312;2024-03-23T09:08:36;8.80;89.40
15483;DHT22;7843;50.330;7.312;2024-03-23T09:11:10;8.70;89.50
15483;DHT22;7843;50.330;7.312;2024-03-23T09:13:37;8.50;89.30
15483;DHT22;7843;50.330;7.312;2024-03-23T09:16:04;8.40;89.60
15483;DHT22;7843;50.330;7.312;2024-03-23T09:18:34;8.40;89.10
15483;DHT22;7843;50.330;7.312;2024-03-23T09:21:04;8.60;90.20
15483;DHT22;7843;50.330;7.312;2024-03-23T09:23:30;8.80;90.60
15483;DHT22;7843;50.330;7.312;2024-03-23T09:25:55;9.00;92.50
15483;DHT22;7843;50.330;7.312;2024-03-23T09:28:22;9.10;90.70
15483;DHT22;7843;50.330;7.312;2024-03-23T09:30:48;9.00;90.40
15483;DHT22;7843;50.330;7.312;2024-03-23T09:33:13;8.90;88.90
15483;DHT22;7843;50.330;7.312;2024-03-23T09:35:40;8.80;89.90
15483;DHT22;7843;50.330;7.312;2024-03-23T09:38:07;8.70;88.60
15483;DHT22;7843;50.330;7.312;2024-03-23T09:40:33;8.70;90.20
15483;DHT22;7843;50.330;7.312;2024-03-23T09:42:59;8.60;89.30
15483;DHT22;7843;50.330;7.312;2024-03-23T09:45:29;8.60;90.00
15483;DHT22;7843;50.330;7.312;2024-03-23T09:47:55;8.70;89.50
15483;DHT22;7843;50.330;7.312;2024-03-23T09:50:22;8.70;88.90
15483;DHT22;7843;50.330;7.312;2024-03-23T09:52:48;8.60;89.00
15483;DHT22;7843;50.330;7.312;2024-03-23T09:55:14;8.60;89.20
15483;DHT22;7843;50.330;7.312;2024-03-23T09:57:41;8.70;89.80
15483;DHT22;7843;50.330;7.312;2024-03-23T10:00:08;8.80;88.80
15483;DHT22;7843;50.330;7.312;2024-03-23T10:02:34;9.00;88.60
15483;DHT22;7843;50.330;7.312;2024-03-23T10:05:00;9.20;88.80
15483;DHT22;7843;50.330;7.312;2024-03-23T10:07:26;9.50;88.80
15483;DHT22;7843;50.330;7.312;2024-03-23T10:09:55;9.70;88.10
15483;DHT22;7843;50.330;7.312;2024-03-23T10:12:22;9.80;86.20
15483;DHT22;7843;50.330;7.312;2024-03-23T10:14:49;9.70;85.30
15483;DHT22;7843;50.330;7.312;2024-03-23T10:17:18;9.80;87.50
15483;DHT22;7843;50.330;7.312;2024-03-23T10:19:48;9.90;85.60
15483;DHT22;7843;50.330;7.312;2024-03-23T10:22:23;9.70;85.10
15483;DHT22;7843;50.330;7.312;2024-03-23T10:24:52;9.80;86.60
15483;DHT22;7843;50.330;7.312;2024-03-23T10:27:20;9.90;85.40
15483;DHT22;7843;50.330;7.312;2024-03-23T10:29:50;9.90;84.80
15483;DHT22;7843;50.330;7.312;2024-03-23T10:32:19;10.00;85.50
15483;DHT22;7843;50.330;7.312;2024-03-23T10:34:45;10.00;83.10
15483;DHT22;7843;50.330;7.312;2024-03-23T10:37:11;10.20;83.20
15483;DHT22;7843;50.330;7.312;2024-03-23T10:39:41;10.20;81.50
15483;DHT22;7843;50.330;7.312;2024-03-23T10:42:09;10.30;84.00
15483;DHT22;7843;50.330;7.312;2024-03-23T10:44:36;10.10;83.50
15483;DHT22;7843;50.330;7.312;2024-03-23T10:47:03;10.00;84.50
15483;DHT22;7843;50.330;7.312;2024-03-23T10:49:31;10.00;84.40
15483;DHT22;7843;50.330;7.312;2024-03-23T10:52:03;10.10;85.80
15483;DHT22;7843;50.330;7.312;2024-03-23T10:54:33;10.20;83.20
15483;DHT22;7843;50.330;7.312;2024-03-23T10:57:03;10.30;84.00
15483;DHT22;7843;50.330;7.312;2024-03-23T10:59:31;10.40;83.10
15483;DHT22;7843;50.330;7.312;2024-03-23T11:01:58;10.70;83.50
15483;DHT22;7843;50.330;7.312;2024-03-23T11:04:37;10.70;82.80
15483;DHT22;7843;50.330;7.312;2024-03-23T11:09:52;10.70;82.90
15483;DHT22;7843;50.330;7.312;2024-03-23T11:14:56;10.80;82.00
15483;DHT22;7843;50.330;7.312;2024-03-23T11:17:24;10.60;79.30
15483;DHT22;7843;50.330;7.312;2024-03-23T11:20:00;10.40;80.20
15483;DHT22;7843;50.330;7.312;2024-03-23T11:22:40;10.60;80.80
15483;DHT22;7843;50.330;7.312;2024-03-23T11:27:44;10.90;78.00
15483;DHT22;7843;50.330;7.312;2024-03-23T11:30:20;11.00;77.60
15483;DHT22;7843;50.330;7.312;2024-03-23T11:32:55;11.00;82.70
15483;DHT22;7843;50.330;7.312;2024-03-23T11:35:34;11.00;85.30
15483;DHT22;7843;50.330;7.312;2024-03-23T11:40:40;10.20;87.70
15483;DHT22;7843;50.330;7.312;2024-03-23T11:43:08;9.90;87.10
15483;DHT22;7843;50.330;7.312;2024-03-23T11:45:36;9.50;88.50
15483;DHT22;7843;50.330;7.312;2024-03-23T11:48:04;9.30;89.60
15483;DHT22;7843;50.330;7.312;2024-03-23T11:50:30;8.70;87.00
15483;DHT22;7843;50.330;7.312;2024-03-23T11:58:25;7.90;90.60
15483;DHT22;7843;50.330;7.312;2024-03-23T12:00:52;7.80;89.90
15483;DHT22;7843;50.330;7.312;2024-03-23T12:03:18;7.80;91.10
15483;DHT22;7843;50.330;7.312;2024-03-23T12:05:51;7.60;88.90
15483;DHT22;7843;50.330;7.312;2024-03-23T12:11:04;7.70;88.90
15483;DHT22;7843;50.330;7.312;2024-03-23T12:13:30;7.90;90.00
15483;DHT22;7843;50.330;7.312;2024-03-23T12:18:38;8.90;89.80
15483;DHT22;7843;50.330;7.312;2024-03-23T12:21:06;9.30;87.00
15483;DHT22;7843;50.330;7.312;2024-03-23T12:23:32;9.80;87.40
15483;DHT22;7843;50.330;7.312;2024-03-23T12:25:58;10.50;85.30
15483;DHT22;7843;50.330;7.312;2024-03-23T12:28:24;11.30;84.30
15483;DHT22;7843;50.330;7.312;2024-03-23T12:30:50;11.50;84.10
15483;DHT22;7843;50.330;7.312;2024-03-23T12:33:15;11.70;82.10
15483;DHT22;7843;50.330;7.312;2024-03-23T12:35:41;12.30;81.60
15483;DHT22;7843;50.330;7.312;2024-03-23T12:38:07;12.70;79.30
15483;DHT22;7843;50.330;7.312;2024-03-23T12:40:33;12.40;76.60
15483;DHT22;7843;50.330;7.312;2024-03-23T12:42:59;11.50;77.30
15483;DHT22;7843;50.330;7.312;2024-03-23T12:45:24;10.70;79.30
15483;DHT22;7843;50.330;7.312;2024-03-23T12:47:50;10.20;81.10
15483;DHT22;7843;50.330;7.312;2024-03-23T12:50:19;9.50;85.60
15483;DHT22;7843;50.330;7.312;2024-03-23T12:52:45;8.80;86.00
15483;DHT22;7843;50.330;7.312;2024-03-23T12:55:11;8.50;87.30
15483;DHT22;7843;50.330;7.312;2024-03-23T12:57:37;8.40;88.20
15483;DHT22;7843;50.330;7.312;2024-03-23T13:00:04;9.10;88.10
15483;DHT22;7843;50.330;7.312;2024-03-23T13:02:30;11.30;89.10
15483;DHT22;7843;50.330;7.312;2024-03-23T13:04:56;13.90;77.20
15483;DHT22;7843;50.330;7.312;2024-03-23T13:07:23;15.50;73.60
15483;DHT22;7843;50.330;7.312;2024-03-23T13:09:52;16.80;68.60
15483;DHT22;7843;50.330;7.312;2024-03-23T13:12:19;17.50;65.10
15483;DHT22;7843;50.330;7.312;2024-03-23T13:14:46;18.60;67.20
15483;DHT22;7843;50.330;7.312;2024-03-23T13:17:12;19.40;61.50
15483;DHT22;7843;50.330;7.312;2024-03-23T13:19:38;20.00;61.60
15483;DHT22;7843;50.330;7.312;2024-03-23T13:22:04;20.30;62.30
15483;DHT22;7843;50.330;7.312;2024-03-23T13:24:31;19.80;60.30
15483;DHT22;7843;50.330;7.312;2024-03-23T13:26:57;18.90;61.60
15483;DHT22;7843;50.330;7.312;2024-03-23T13:29:24;17.90;62.70
15483;DHT22;7843;50.330;7.312;2024-03-23T13:31:50;16.60;63.30
15483;DHT22;7843;50.330;7.312;2024-03-23T13:34:17;15.30;65.30
15483;DHT22;7843;50.330;7.312;2024-03-23T13:36:44;14.40;68.80
15483;DHT22;7843;50.330;7.312;2024-03-23T13:39:10;13.90;69.40
15483;DHT22;7843;50.330;7.312;2024-03-23T13:41:40;13.30;69.50
15483;DHT22;7843;50.330;7.312;2024-03-23T13:44:07;12.70;70.50
15483;DHT22;7843;50.330;7.312;2024-03-23T13:46:33;12.10;72.30
15483;DHT22;7843;50.330;7.312;2024-03-23T13:49:00;11.50;75.20
15483;DHT22;7843;50.330;7.312;2024-03-23T13:51:26;11.50;74.20
15483;DHT22;7843;50.330;7.312;2024-03-23T13:53:56;11.50;73.80
15483;DHT22;7843;50.330;7.312;2024-03-23T13:56:25;11.30;74.80
15483;DHT22;7843;50.330;7.312;2024-03-23T13:58:51;11.10;74.90
15483;DHT22;7843;50.330;7.312;2024-03-23T14:01:17;11.00;74.70
15483;DHT22;7843;50.330;7.312;2024-03-23T14:03:43;10.50;75.30
15483;DHT22;7843;50.330;7.312;2024-03-23T14:06:10;9.90;79.20
15483;DHT22;7843;50.330;7.312;2024-03-23T14:08:37;10.80;83.20
15483;DHT22;7843;50.330;7.312;2024-03-23T14:11:08;11.90;82.80
15483;DHT22;7843;50.330;7.312;2024-03-23T14:13:35;12.50;76.70
15483;DHT22;7843;50.330;7.312;2024-03-23T14:16:01;12.80;78.30
15483;DHT22;7843;50.330;7.312;2024-03-23T14:18:28;12.30;72.20
15483;DHT22;7843;50.330;7.312;2024-03-23T14:21:00;11.60;72.60
15483;DHT22;7843;50.330;7.312;2024-03-23T14:23:28;11.40;73.00
15483;DHT22;7843;50.330;7.312;2024-03-23T14:26:00;11.20;74.60
15483;DHT22;7843;50.330;7.312;2024-03-23T14:28:26;11.00;73.90
15483;DHT22;7843;50.330;7.312;2024-03-23T14:30:55;10.60;74.70
15483;DHT22;7843;50.330;7.312;2024-03-23T14:33:21;10.60;76.90
15483;DHT22;7843;50.330;7.312;2024-03-23T14:35:54;10.90;78.00
15483;DHT22;7843;50.330;7.312;2024-03-23T14:38:21;11.30;74.80
15483;DHT22;7843;50.330;7.312;2024-03-23T14:40:47;11.90;72.90
15483;DHT22;7843;50.330;7.312;2024-03-23T14:43:13;11.50;71.90
15483;DHT22;7843;50.330;7.312;2024-03-23T14:48:34;13.60;70.70
15483;DHT22;7843;50.330;7.312;2024-03-23T14:51:01;13.40;71.80
15483;DHT22;7843;50.330;7.312;2024-03-23T14:53:27;13.60;72.10
15483;DHT22;7843;50.330;7.312;2024-03-23T14:55:56;14.30;71.60
15483;DHT22;7843;50.330;7.312;2024-03-23T14:58:22;15.00;69.50
15483;DHT22;7843;50.330;7.312;2024-03-23T15:00:49;14.60;68.80
15483;DHT22;7843;50.330;7.312;2024-03-23T15:03:15;13.90;70.80
15483;DHT22;7843;50.330;7.312;2024-03-23T15:05:41;13.40;71.10
15483;DHT22;7843;50.330;7.312;2024-03-23T15:08:07;12.50;74.40
15483;DHT22;7843;50.330;7.312;2024-03-23T15:10:34;12.20;74.90
15483;DHT22;7843;50.330;7.312;2024-03-23T15:12:59;12.20;75.50
15483;DHT22;7843;50.330;7.312;2024-03-23T15:15:25;12.40;75.60
15483;DHT22;7843;50.330;7.312;2024-03-23T15:17:52;12.80;74.30
15483;DHT22;7843;50.330;7.312;2024-03-23T15:20:17;13.20;74.10
15483;DHT22;7843;50.330;7.312;2024-03-23T15:22:43;13.40;72.30
15483;DHT22;7843;50.330;7.312;2024-03-23T15:25:09;13.60;74.60
15483;DHT22;7843;50.330;7.312;2024-03-23T15:27:35;13.60;75.20
15483;DHT22;7843;50.330;7.312;2024-03-23T15:30:01;14.00;72.30
15483;DHT22;7843;50.330;7.312;2024-03-23T15:32:27;14.20;71.70
15483;DHT22;7843;50.330;7.312;2024-03-23T15:34:52;13.90;71.20
15483;DHT22;7843;50.330;7.312;2024-03-23T15:37:18;13.30;73.80
15483;DHT22;7843;50.330;7.312;2024-03-23T15:39:44;12.80;73.10
15483;DHT22;7843;50.330;7.312;2024-03-23T15:42:10;12.30;72.40
15483;DHT22;7843;50.330;7.312;2024-03-23T15:44:36;11.80;74.90
15483;DHT22;7843;50.330;7.312;2024-03-23T15:47:02;11.30;75.50
15483;DHT22;7843;50.330;7.312;2024-03-23T15:51:54;8.20;87.60
15483;DHT22;7843;50.330;7.312;2024-03-23T15:54:20;5.90;93.20
15483;DHT22;7843;50.330;7.312;2024-03-23T15:56:48;5.00;97.40
15483;DHT22;7843;50.330;7.312;2024-03-23T15:59:13;4.80;99.90
15483;DHT22;7843;50.330;7.312;2024-03-23T16:01:39;4.80;99.90
15483;DHT22;7843;50.330;7.312;2024-03-23T16:04:05;5.00;99.90
15483;DHT22;7843;50.330;7.312;2024-03-23T16:06:31;5.10;99.90
15483;DHT22;7843;50.330;7.312;2024-03-23T16:08:56;5.40;99.90
15483;DHT22;7843;50.330;7.312;2024-03-23T16:11:22;5.40;99.90
15483;DHT22;7843;50.330;7.312;2024-03-23T16:13:48;5.60;99.90
15483;DHT22;7843;50.330;7.312;2024-03-23T16:16:14;5.80;99.90
15483;DHT22;7843;50.330;7.312;2024-03-23T16:18:41;5.70;99.50
15483;DHT22;7843;50.330;7.312;2024-03-23T16:21:09;5.80;99.90
15483;DHT22;7843;50.330;7.312;2024-03-23T16:23:38;5.90;99.90
15483;DHT22;7843;50.330;7.312;2024-03-23T16:26:04;6.00;99.90
15483;DHT22;7843;50.330;7.312;2024-03-23T16:28:35;6.00;99.90
15483;DHT22;7843;50.330;7.312;2024-03-23T16:31:02;6.00;99.90
15483;DHT22;7843;50.330;7.312;2024-03-23T16:33:29;6.10;99.90
15483;DHT22;7843;50.330;7.312;2024-03-23T16:36:04;6.10;99.90
15483;DHT22;7843;50.330;7.312;2024-03-23T16:38:33;6.00;99.90
15483;DHT22;7843;50.330;7.312;2024-03-23T16:41:12;5.90;99.90
15483;DHT22;7843;50.330;7.312;2024-03-23T16:43:44;5.90;99.90
15483;DHT22;7843;50.330;7.312;2024-03-23T16:46:14;5.90;99.90
15483;DHT22;7843;50.330;7.312;2024-03-23T16:48:44;5.80;99.90
15483;DHT22;7843;50.330;7.312;2024-03-23T16:51:11;5.70;99.90
15483;DHT22;7843;50.330;7.312;2024-03-23T16:53:38;5.80;99.90
15483;DHT22;7843;50.330;7.312;2024-03-23T16:56:07;5.80;99.90
15483;DHT22;7843;50.330;7.312;2024-03-23T16:58:35;5.80;99.90
15483;DHT22;7843;50.330;7.312;2024-03-23T17:01:19;5.60;99.60
15483;DHT22;7843;50.330;7.312;2024-03-23T17:03:49;5.50;99.90
15483;DHT22;7843;50.330;7.312;2024-03-23T17:06:15;5.50;98.80
15483;DHT22;7843;50.330;7.312;2024-03-23T17:08:42;5.50;99.70
15483;DHT22;7843;50.330;7.312;2024-03-23T17:11:09;5.40;98.70
15483;DHT22;7843;50.330;7.312;2024-03-23T17:13:35;5.50;99.90
15483;DHT22;7843;50.330;7.312;2024-03-23T17:16:02;5.40;98.00
15483;DHT22;7843;50.330;7.312;2024-03-23T17:18:28;5.50;99.90